sensor_id;sensor_type;location;lat;lon;timestamp;P1;durP1;ratioP1;P2;durP2;ratioP2
17773;SDS011;9011;33.236;-97.118;2023-07-24T00:00:07;6.07;;;5.47;;
17773;SDS011;9011;33.236;-97.118;2023-07-24T00:02:35;6.15;;;5.38;;
17773;SDS011;9011;33.236;-97.118;2023-07-24T00:05:06;5.30;;;4.80;;
17773;SDS011;9011;33.236;-97.118;2023-07-24T00:07:35;5.82;;;5.30;;
17773;SDS011;9011;33.236;-97.118;2023-07-24T00:10:04;5.15;;;4.70;;
17773;SDS011;9011;33.236;-97.118;2023-07-24T00:12:33;5.60;;;5.10;;
17773;SDS011;9011;33.236;-97.118;2023-07-24T00:15:01;5.68;;;4.95;;
17773;SDS011;9011;33.236;-97.118;2023-07-24T00:17:30;5.05;;;4.55;;
17773;SDS011;9011;33.236;-97.118;2023-07-24T00:19:58;5.63;;;5.13;;
17773;SDS011;9011;33.236;-97.118;2023-07-24T00:22:28;4.60;;;4.22;;
17773;SDS011;9011;33.236;-97.118;2023-07-24T00:24:57;5.22;;;4.72;;
17773;SDS011;9011;33.236;-97.118;2023-07-24T00:27:25;5.28;;;4.78;;
17773;SDS011;9011;33.236;-97.118;2023-07-24T00:29:53;5.72;;;4.50;;
17773;SDS011;9011;33.236;-97.118;2023-07-24T00:32:22;5.07;;;4.65;;
17773;SDS011;9011;33.236;-97.118;2023-07-24T00:34:50;6.03;;;4.53;;
17773;SDS011;9011;33.236;-97.118;2023-07-24T00:37:20;4.80;;;4.32;;
17773;SDS011;9011;33.236;-97.118;2023-07-24T00:39:53;5.53;;;5.03;;
17773;SDS011;9011;33.236;-97.118;2023-07-24T00:42:22;5.78;;;4.65;;
17773;SDS011;9011;33.236;-97.118;2023-07-24T00:44:50;5.22;;;4.72;;
17773;SDS011;9011;33.236;-97.118;2023-07-24T00:47:19;6.90;;;4.88;;
17773;SDS011;9011;33.236;-97.118;2023-07-24T00:49:47;5.75;;;4.97;;
17773;SDS011;9011;33.236;-97.118;2023-07-24T00:52:16;8.10;;;5.00;;
17773;SDS011;9011;33.236;-97.118;2023-07-24T00:54:44;5.93;;;5.22;;
17773;SDS011;9011;33.236;-97.118;2023-07-24T00:57:15;5.22;;;4.72;;
17773;SDS011;9011;33.236;-97.118;2023-07-24T00:59:44;6.28;;;4.95;;
17773;SDS011;9011;33.236;-97.118;2023-07-24T01:02:12;5.45;;;4.95;;
17773;SDS011;9011;33.236;-97.118;2023-07-24T01:04:41;7.30;;;5.82;;
17773;SDS011;9011;33.236;-97.118;2023-07-24T01:07:10;5.60;;;4.72;;
17773;SDS011;9011;33.236;-97.118;2023-07-24T01:09:39;5.63;;;5.10;;
17773;SDS011;9011;33.236;-97.118;2023-07-24T01:12:10;5.68;;;4.85;;
17773;SDS011;9011;33.236;-97.118;2023-07-24T01:14:47;5.38;;;4.88;;
17773;SDS011;9011;33.236;-97.118;2023-07-24T01:17:23;8.23;;;5.50;;
17773;SDS011;9011;33.236;-97.118;2023-07-24T01:19:55;6.20;;;4.95;;
17773;SDS011;9011;33.236;-97.118;2023-07-24T01:22:31;6.50;;;5.63;;
17773;SDS011;9011;33.236;-97.118;2023-07-24T01:25:09;7.20;;;5.05;;
17773;SDS011;9011;33.236;-97.118;2023-07-24T01:27:46;6.57;;;5.88;;
17773;SDS011;9011;33.236;-97.118;2023-07-24T01:30:16;6.30;;;5.45;;
17773;SDS011;9011;33.236;-97.118;2023-07-24T01:32:46;6.13;;;5.13;;
17773;SDS011;9011;33.236;-97.118;2023-07-24T01:35:15;6.35;;;4.68;;
17773;SDS011;9011;33.236;-97.118;2023-07-24T01:37:44;6.57;;;5.15;;
17773;SDS011;9011;33.236;-97.118;2023-07-24T01:40:15;6.18;;;5.55;;
17773;SDS011;9011;33.236;-97.118;2023-07-24T01:42:43;5.80;;;5.20;;
17773;SDS011;9011;33.236;-97.118;2023-07-24T01:45:13;6.47;;;5.57;;
17773;SDS011;9011;33.236;-97.118;2023-07-24T01:47:42;5.88;;;5.28;;
17773;SDS011;9011;33.236;-97.118;2023-07-24T01:50:10;5.53;;;5.00;;
17773;SDS011;9011;33.236;-97.118;2023-07-24T01:52:39;5.85;;;5.35;;
17773;SDS011;9011;33.236;-97.118;2023-07-24T01:55:07;5.80;;;4.93;;
17773;SDS011;9011;33.236;-97.118;2023-07-24T01:57:36;5.72;;;5.22;;
17773;SDS011;9011;33.236;-97.118;2023-07-24T02:00:06;6.80;;;5.28;;
17773;SDS011;9011;33.236;-97.118;2023-07-24T02:02:35;6.60;;;4.90;;
17773;SDS011;9011;33.236;-97.118;2023-07-24T02:05:04;6.45;;;4.95;;
17773;SDS011;9011;33.236;-97.118;2023-07-24T02:07:33;5.55;;;4.78;;
17773;SDS011;9011;33.236;-97.118;2023-07-24T02:10:01;5.70;;;4.88;;
17773;SDS011;9011;33.236;-97.118;2023-07-24T02:12:30;5.82;;;5.13;;
17773;SDS011;9011;33.236;-97.118;2023-07-24T02:14:58;5.97;;;5.38;;
17773;SDS011;9011;33.236;-97.118;2023-07-24T02:17:28;5.45;;;4.70;;
17773;SDS011;9011;33.236;-97.118;2023-07-24T02:19:56;6.18;;;5.15;;
17773;SDS011;9011;33.236;-97.118;2023-07-24T02:22:25;6.60;;;5.55;;
17773;SDS011;9011;33.236;-97.118;2023-07-24T02:24:53;5.45;;;4.95;;
17773;SDS011;9011;33.236;-97.118;2023-07-24T02:27:25;5.72;;;5.22;;
17773;SDS011;9011;33.236;-97.118;2023-07-24T02:29:54;6.85;;;5.22;;
17773;SDS011;9011;33.236;-97.118;2023-07-24T02:32:22;6.43;;;5.82;;
17773;SDS011;9011;33.236;-97.118;2023-07-24T02:34:52;6.07;;;5.55;;
17773;SDS011;9011;33.236;-97.118;2023-07-24T02:37:21;5.97;;;4.82;;
17773;SDS011;9011;33.236;-97.118;2023-07-24T02:39:49;5.88;;;4.95;;
17773;SDS011;9011;33.236;-97.118;2023-07-24T02:42:18;8.30;;;5.30;;
17773;SDS011;9011;33.236;-97.118;2023-07-24T02:44:47;6.97;;;5.45;;
17773;SDS011;9011;33.236;-97.118;2023-07-24T02:47:15;7.10;;;5.53;;
17773;SDS011;9011;33.236;-97.118;2023-07-24T02:49:44;7.78;;;5.70;;
17773;SDS011;9011;33.236;-97.118;2023-07-24T02:52:14;5.40;;;4.90;;
17773;SDS011;9011;33.236;-97.118;2023-07-24T02:54:42;7.97;;;6.05;;
17773;SDS011;9011;33.236;-97.118;2023-07-24T02:57:11;7.20;;;5.40;;
17773;SDS011;9011;33.236;-97.118;2023-07-24T02:59:39;5.95;;;5.13;;
17773;SDS011;9011;33.236;-97.118;2023-07-24T03:02:08;6.28;;;5.68;;
17773;SDS011;9011;33.236;-97.118;2023-07-24T03:04:36;6.57;;;5.35;;
17773;SDS011;9011;33.236;-97.118;2023-07-24T03:07:04;6.47;;;5.88;;
17773;SDS011;9011;33.236;-97.118;2023-07-24T03:09:34;7.22;;;6.10;;
17773;SDS011;9011;33.236;-97.118;2023-07-24T03:12:03;6.15;;;5.55;;
17773;SDS011;9011;33.236;-97.118;2023-07-24T03:14:31;7.07;;;6.43;;
17773;SDS011;9011;33.236;-97.118;2023-07-24T03:17:00;7.55;;;6.13;;
17773;SDS011;9011;33.236;-97.118;2023-07-24T03:19:28;5.80;;;5.07;;
17773;SDS011;9011;33.236;-97.118;2023-07-24T03:21:56;6.47;;;5.85;;
17773;SDS011;9011;33.236;-97.118;2023-07-24T03:24:25;6.40;;;5.63;;
17773;SDS011;9011;33.236;-97.118;2023-07-24T03:26:55;6.60;;;6.00;;
17773;SDS011;9011;33.236;-97.118;2023-07-24T03:29:23;8.02;;;5.97;;
17773;SDS011;9011;33.236;-97.118;2023-07-24T03:31:51;7.10;;;6.30;;
17773;SDS011;9011;33.236;-97.118;2023-07-24T03:34:20;7.15;;;5.85;;
17773;SDS011;9011;33.236;-97.118;2023-07-24T03:36:48;7.10;;;5.88;;
17773;SDS011;9011;33.236;-97.118;2023-07-24T03:39:17;8.18;;;6.47;;
17773;SDS011;9011;33.236;-97.118;2023-07-24T03:41:45;7.00;;;6.30;;
17773;SDS011;9011;33.236;-97.118;2023-07-24T03:44:15;7.13;;;5.93;;
17773;SDS011;9011;33.236;-97.118;2023-07-24T03:46:43;6.57;;;5.97;;
17773;SDS011;9011;33.236;-97.118;2023-07-24T03:49:11;7.03;;;6.32;;
17773;SDS011;9011;33.236;-97.118;2023-07-24T03:51:40;8.65;;;6.05;;
17773;SDS011;9011;33.236;-97.118;2023-07-24T03:54:08;8.98;;;6.38;;
17773;SDS011;9011;33.236;-97.118;2023-07-24T03:56:37;6.65;;;6.05;;
17773;SDS011;9011;33.236;-97.118;2023-07-24T03:59:05;7.53;;;5.95;;
17773;SDS011;9011;33.236;-97.118;2023-07-24T04:01:35;6.47;;;5.55;;
17773;SDS011;9011;33.236;-97.118;2023-07-24T04:04:03;6.32;;;5.68;;
17773;SDS011;9011;33.236;-97.118;2023-07-24T04:06:32;6.72;;;5.90;;
17773;SDS011;9011;33.236;-97.118;2023-07-24T04:09:00;7.43;;;6.15;;
17773;SDS011;9011;33.236;-97.118;2023-07-24T04:11:29;6.95;;;6.03;;
17773;SDS011;9011;33.236;-97.118;2023-07-24T04:13:57;7.95;;;6.10;;
17773;SDS011;9011;33.236;-97.118;2023-07-24T04:16:26;7.43;;;6.30;;
17773;SDS011;9011;33.236;-97.118;2023-07-24T04:18:56;7.00;;;6.03;;
17773;SDS011;9011;33.236;-97.118;2023-07-24T04:21:24;6.72;;;5.97;;
17773;SDS011;9011;33.236;-97.118;2023-07-24T04:23:54;6.35;;;5.70;;
17773;SDS011;9011;33.236;-97.118;2023-07-24T04:26:23;6.30;;;5.70;;
17773;SDS011;9011;33.236;-97.118;2023-07-24T04:28:51;6.00;;;5.38;;
17773;SDS011;9011;33.236;-97.118;2023-07-24T04:31:20;6.70;;;6.00;;
17773;SDS011;9011;33.236;-97.118;2023-07-24T04:33:49;7.68;;;5.97;;
17773;SDS011;9011;33.236;-97.118;2023-07-24T04:36:19;6.50;;;5.90;;
17773;SDS011;9011;33.236;-97.118;2023-07-24T04:38:47;7.10;;;6.40;;
17773;SDS011;9011;33.236;-97.118;2023-07-24T04:41:16;6.43;;;5.82;;
17773;SDS011;9011;33.236;-97.118;2023-07-24T04:43:45;9.32;;;6.53;;
17773;SDS011;9011;33.236;-97.118;2023-07-24T04:46:13;6.55;;;5.88;;
17773;SDS011;9011;33.236;-97.118;2023-07-24T04:48:42;7.13;;;6.38;;
17773;SDS011;9011;33.236;-97.118;2023-07-24T04:51:10;6.90;;;6.20;;
17773;SDS011;9011;33.236;-97.118;2023-07-24T04:53:41;6.30;;;5.70;;
17773;SDS011;9011;33.236;-97.118;2023-07-24T04:56:09;6.57;;;5.97;;
17773;SDS011;9011;33.236;-97.118;2023-07-24T04:58:37;6.60;;;5.75;;
17773;SDS011;9011;33.236;-97.118;2023-07-24T05:01:06;7.35;;;5.95;;
17773;SDS011;9011;33.236;-97.118;2023-07-24T05:03:38;7.05;;;6.22;;
17773;SDS011;9011;33.236;-97.118;2023-07-24T05:06:07;6.57;;;5.85;;
17773;SDS011;9011;33.236;-97.118;2023-07-24T05:08:35;8.50;;;6.15;;
17773;SDS011;9011;33.236;-97.118;2023-07-24T05:11:05;7.72;;;6.82;;
17773;SDS011;9011;33.236;-97.118;2023-07-24T05:13:34;6.38;;;5.78;;
17773;SDS011;9011;33.236;-97.118;2023-07-24T05:16:02;6.35;;;5.75;;
17773;SDS011;9011;33.236;-97.118;2023-07-24T05:18:31;7.18;;;6.47;;
17773;SDS011;9011;33.236;-97.118;2023-07-24T05:20:59;6.72;;;5.78;;
17773;SDS011;9011;33.236;-97.118;2023-07-24T05:23:28;7.25;;;5.90;;
17773;SDS011;9011;33.236;-97.118;2023-07-24T05:25:57;6.90;;;6.20;;
17773;SDS011;9011;33.236;-97.118;2023-07-24T05:28:27;7.93;;;6.25;;
17773;SDS011;9011;33.236;-97.118;2023-07-24T05:30:59;6.97;;;6.00;;
17773;SDS011;9011;33.236;-97.118;2023-07-24T05:33:30;7.28;;;6.57;;
17773;SDS011;9011;33.236;-97.118;2023-07-24T05:35:59;7.07;;;5.95;;
17773;SDS011;9011;33.236;-97.118;2023-07-24T05:38:28;6.57;;;5.95;;
17773;SDS011;9011;33.236;-97.118;2023-07-24T05:40:57;7.00;;;6.22;;
17773;SDS011;9011;33.236;-97.118;2023-07-24T05:43:28;8.18;;;6.70;;
17773;SDS011;9011;33.236;-97.118;2023-07-24T05:45:57;8.20;;;6.95;;
17773;SDS011;9011;33.236;-97.118;2023-07-24T05:48:26;8.15;;;6.72;;
17773;SDS011;9011;33.236;-97.118;2023-07-24T05:50:54;7.75;;;6.97;;
17773;SDS011;9011;33.236;-97.118;2023-07-24T05:53:23;8.18;;;6.55;;
17773;SDS011;9011;33.236;-97.118;2023-07-24T05:55:57;7.47;;;6.78;;
17773;SDS011;9011;33.236;-97.118;2023-07-24T05:58:28;6.97;;;6.28;;
17773;SDS011;9011;33.236;-97.118;2023-07-24T06:00:56;8.52;;;7.50;;
17773;SDS011;9011;33.236;-97.118;2023-07-24T06:03:24;7.32;;;6.53;;
17773;SDS011;9011;33.236;-97.118;2023-07-24T06:05:54;8.25;;;7.45;;
17773;SDS011;9011;33.236;-97.118;2023-07-24T06:08:23;7.55;;;6.72;;
17773;SDS011;9011;33.236;-97.118;2023-07-24T06:10:51;8.77;;;7.10;;
17773;SDS011;9011;33.236;-97.118;2023-07-24T06:13:21;7.80;;;6.97;;
17773;SDS011;9011;33.236;-97.118;2023-07-24T06:15:51;8.20;;;7.43;;
17773;SDS011;9011;33.236;-97.118;2023-07-24T06:18:19;8.70;;;7.00;;
17773;SDS011;9011;33.236;-97.118;2023-07-24T06:20:51;7.35;;;6.53;;
17773;SDS011;9011;33.236;-97.118;2023-07-24T06:23:20;7.70;;;6.88;;
17773;SDS011;9011;33.236;-97.118;2023-07-24T06:25:49;7.85;;;6.65;;
17773;SDS011;9011;33.236;-97.118;2023-07-24T06:28:18;10.95;;;7.30;;
17773;SDS011;9011;33.236;-97.118;2023-07-24T06:30:47;7.68;;;6.88;;
17773;SDS011;9011;33.236;-97.118;2023-07-24T06:33:17;9.05;;;7.15;;
17773;SDS011;9011;33.236;-97.118;2023-07-24T06:35:46;7.95;;;7.15;;
17773;SDS011;9011;33.236;-97.118;2023-07-24T06:38:15;9.73;;;7.22;;
17773;SDS011;9011;33.236;-97.118;2023-07-24T06:40:46;8.10;;;6.80;;
17773;SDS011;9011;33.236;-97.118;2023-07-24T06:43:15;9.05;;;7.38;;
17773;SDS011;9011;33.236;-97.118;2023-07-24T06:45:43;8.63;;;7.40;;
17773;SDS011;9011;33.236;-97.118;2023-07-24T06:48:11;7.72;;;6.97;;
17773;SDS011;9011;33.236;-97.118;2023-07-24T06:50:42;7.88;;;7.07;;
17773;SDS011;9011;33.236;-97.118;2023-07-24T06:53:11;7.90;;;7.10;;
17773;SDS011;9011;33.236;-97.118;2023-07-24T06:55:39;8.35;;;7.35;;
17773;SDS011;9011;33.236;-97.118;2023-07-24T06:58:09;8.65;;;7.72;;
17773;SDS011;9011;33.236;-97.118;2023-07-24T07:00:38;8.40;;;6.90;;
17773;SDS011;9011;33.236;-97.118;2023-07-24T07:03:06;8.38;;;7.47;;
17773;SDS011;9011;33.236;-97.118;2023-07-24T07:05:34;9.02;;;7.53;;
17773;SDS011;9011;33.236;-97.118;2023-07-24T07:10:58;9.00;;;7.10;;
17773;SDS011;9011;33.236;-97.118;2023-07-24T07:13:27;8.27;;;7.35;;
17773;SDS011;9011;33.236;-97.118;2023-07-24T07:15:56;10.52;;;7.25;;
17773;SDS011;9011;33.236;-97.118;2023-07-24T07:18:25;8.77;;;7.50;;
17773;SDS011;9011;33.236;-97.118;2023-07-24T07:20:53;8.43;;;7.53;;
17773;SDS011;9011;33.236;-97.118;2023-07-24T07:23:22;8.95;;;7.03;;
17773;SDS011;9011;33.236;-97.118;2023-07-24T07:25:54;9.32;;;7.57;;
17773;SDS011;9011;33.236;-97.118;2023-07-24T07:28:23;8.52;;;7.20;;
17773;SDS011;9011;33.236;-97.118;2023-07-24T07:30:53;10.55;;;7.20;;
17773;SDS011;9011;33.236;-97.118;2023-07-24T07:33:21;9.13;;;8.15;;
17773;SDS011;9011;33.236;-97.118;2023-07-24T07:35:50;8.10;;;6.90;;
17773;SDS011;9011;33.236;-97.118;2023-07-24T07:38:19;7.68;;;6.88;;
17773;SDS011;9011;33.236;-97.118;2023-07-24T07:40:48;7.47;;;6.78;;
17773;SDS011;9011;33.236;-97.118;2023-07-24T07:43:18;8.93;;;7.75;;
17773;SDS011;9011;33.236;-97.118;2023-07-24T07:45:46;8.60;;;7.32;;
17773;SDS011;9011;33.236;-97.118;2023-07-24T07:48:15;8.70;;;7.53;;
17773;SDS011;9011;33.236;-97.118;2023-07-24T07:50:43;8.50;;;6.47;;
17773;SDS011;9011;33.236;-97.118;2023-07-24T07:53:16;11.25;;;6.95;;
17773;SDS011;9011;33.236;-97.118;2023-07-24T07:55:45;8.15;;;7.35;;
17773;SDS011;9011;33.236;-97.118;2023-07-24T07:58:13;8.63;;;7.22;;
17773;SDS011;9011;33.236;-97.118;2023-07-24T08:00:43;8.85;;;7.90;;
17773;SDS011;9011;33.236;-97.118;2023-07-24T08:03:12;8.57;;;7.68;;
17773;SDS011;9011;33.236;-97.118;2023-07-24T08:05:40;8.00;;;7.28;;
17773;SDS011;9011;33.236;-97.118;2023-07-24T08:08:09;8.05;;;7.35;;
17773;SDS011;9011;33.236;-97.118;2023-07-24T08:10:37;8.75;;;7.88;;
17773;SDS011;9011;33.236;-97.118;2023-07-24T08:13:06;8.05;;;7.25;;
17773;SDS011;9011;33.236;-97.118;2023-07-24T08:15:35;9.15;;;7.43;;
17773;SDS011;9011;33.236;-97.118;2023-07-24T08:18:05;10.20;;;7.45;;
17773;SDS011;9011;33.236;-97.118;2023-07-24T08:20:35;7.97;;;6.93;;
17773;SDS011;9011;33.236;-97.118;2023-07-24T08:23:04;8.50;;;7.10;;
17773;SDS011;9011;33.236;-97.118;2023-07-24T08:25:32;8.65;;;7.45;;
17773;SDS011;9011;33.236;-97.118;2023-07-24T08:28:01;7.65;;;6.85;;
17773;SDS011;9011;33.236;-97.118;2023-07-24T08:30:30;7.30;;;6.60;;
17773;SDS011;9011;33.236;-97.118;2023-07-24T08:32:58;8.88;;;7.50;;
17773;SDS011;9011;33.236;-97.118;2023-07-24T08:35:28;8.50;;;7.70;;
17773;SDS011;9011;33.236;-97.118;2023-07-24T08:37:57;8.30;;;7.03;;
17773;SDS011;9011;33.236;-97.118;2023-07-24T08:40:25;8.30;;;7.38;;
17773;SDS011;9011;33.236;-97.118;2023-07-24T08:42:53;8.80;;;7.93;;
17773;SDS011;9011;33.236;-97.118;2023-07-24T08:45:22;8.20;;;7.30;;
17773;SDS011;9011;33.236;-97.118;2023-07-24T08:47:51;8.55;;;7.60;;
17773;SDS011;9011;33.236;-97.118;2023-07-24T08:50:20;7.88;;;7.07;;
17773;SDS011;9011;33.236;-97.118;2023-07-24T08:52:51;8.55;;;7.70;;
17773;SDS011;9011;33.236;-97.118;2023-07-24T08:55:19;8.32;;;7.40;;
17773;SDS011;9011;33.236;-97.118;2023-07-24T08:57:48;8.30;;;7.25;;
17773;SDS011;9011;33.236;-97.118;2023-07-24T09:00:17;8.48;;;7.60;;
17773;SDS011;9011;33.236;-97.118;2023-07-24T09:02:46;7.45;;;6.75;;
17773;SDS011;9011;33.236;-97.118;2023-07-24T09:05:14;8.45;;;7.38;;
17773;SDS011;9011;33.236;-97.118;2023-07-24T09:07:42;8.70;;;7.72;;
17773;SDS011;9011;33.236;-97.118;2023-07-24T09:10:13;8.30;;;7.50;;
17773;SDS011;9011;33.236;-97.118;2023-07-24T09:12:42;7.93;;;7.13;;
17773;SDS011;9011;33.236;-97.118;2023-07-24T09:15:11;8.48;;;7.28;;
17773;SDS011;9011;33.236;-97.118;2023-07-24T09:17:47;8.23;;;7.40;;
17773;SDS011;9011;33.236;-97.118;2023-07-24T09:20:16;9.52;;;8.07;;
17773;SDS011;9011;33.236;-97.118;2023-07-24T09:22:48;8.55;;;7.50;;
17773;SDS011;9011;33.236;-97.118;2023-07-24T09:25:19;8.77;;;7.88;;
17773;SDS011;9011;33.236;-97.118;2023-07-24T09:27:57;8.60;;;7.55;;
17773;SDS011;9011;33.236;-97.118;2023-07-24T09:30:26;8.38;;;7.35;;
17773;SDS011;9011;33.236;-97.118;2023-07-24T09:32:54;9.68;;;8.32;;
17773;SDS011;9011;33.236;-97.118;2023-07-24T09:35:23;8.27;;;7.47;;
17773;SDS011;9011;33.236;-97.118;2023-07-24T09:38:01;10.13;;;7.15;;
17773;SDS011;9011;33.236;-97.118;2023-07-24T09:40:38;9.15;;;7.65;;
17773;SDS011;9011;33.236;-97.118;2023-07-24T09:43:15;8.57;;;7.68;;
17773;SDS011;9011;33.236;-97.118;2023-07-24T09:45:47;9.00;;;8.10;;
17773;SDS011;9011;33.236;-97.118;2023-07-24T09:48:16;8.10;;;7.20;;
17773;SDS011;9011;33.236;-97.118;2023-07-24T09:50:46;11.35;;;7.63;;
17773;SDS011;9011;33.236;-97.118;2023-07-24T09:53:17;7.93;;;7.20;;
17773;SDS011;9011;33.236;-97.118;2023-07-24T09:55:51;9.65;;;7.90;;
17773;SDS011;9011;33.236;-97.118;2023-07-24T09:58:23;11.32;;;7.88;;
17773;SDS011;9011;33.236;-97.118;2023-07-24T10:00:52;8.05;;;6.93;;
17773;SDS011;9011;33.236;-97.118;2023-07-24T10:03:21;10.68;;;7.65;;
17773;SDS011;9011;33.236;-97.118;2023-07-24T10:05:50;8.77;;;7.43;;
17773;SDS011;9011;33.236;-97.118;2023-07-24T10:08:19;7.90;;;6.93;;
17773;SDS011;9011;33.236;-97.118;2023-07-24T10:10:48;9.85;;;7.93;;
17773;SDS011;9011;33.236;-97.118;2023-07-24T10:13:19;9.38;;;8.35;;
17773;SDS011;9011;33.236;-97.118;2023-07-24T10:15:48;8.50;;;7.20;;
17773;SDS011;9011;33.236;-97.118;2023-07-24T10:18:17;8.82;;;7.85;;
17773;SDS011;9011;33.236;-97.118;2023-07-24T10:20:59;11.75;;;8.60;;
17773;SDS011;9011;33.236;-97.118;2023-07-24T10:23:28;8.85;;;7.50;;
17773;SDS011;9011;33.236;-97.118;2023-07-24T10:26:03;8.75;;;7.57;;
17773;SDS011;9011;33.236;-97.118;2023-07-24T10:28:32;8.63;;;7.72;;
17773;SDS011;9011;33.236;-97.118;2023-07-24T10:31:04;9.02;;;8.02;;
17773;SDS011;9011;33.236;-97.118;2023-07-24T10:33:34;8.30;;;7.43;;
17773;SDS011;9011;33.236;-97.118;2023-07-24T10:36:11;9.00;;;7.63;;
17773;SDS011;9011;33.236;-97.118;2023-07-24T10:38:40;10.90;;;8.07;;
17773;SDS011;9011;33.236;-97.118;2023-07-24T10:41:10;8.75;;;7.50;;
17773;SDS011;9011;33.236;-97.118;2023-07-24T10:43:42;8.65;;;7.50;;
17773;SDS011;9011;33.236;-97.118;2023-07-24T10:46:12;9.80;;;7.22;;
17773;SDS011;9011;33.236;-97.118;2023-07-24T10:48:42;15.52;;;8.45;;
17773;SDS011;9011;33.236;-97.118;2023-07-24T10:51:11;11.00;;;8.48;;
17773;SDS011;9011;33.236;-97.118;2023-07-24T10:53:41;10.65;;;7.80;;
17773;SDS011;9011;33.236;-97.118;2023-07-24T10:56:13;14.10;;;8.32;;
17773;SDS011;9011;33.236;-97.118;2023-07-24T10:58:41;11.10;;;8.10;;
17773;SDS011;9011;33.236;-97.118;2023-07-24T11:01:10;10.07;;;7.97;;
17773;SDS011;9011;33.236;-97.118;2023-07-24T11:03:40;11.15;;;8.40;;
17773;SDS011;9011;33.236;-97.118;2023-07-24T11:06:12;11.43;;;7.18;;
17773;SDS011;9011;33.236;-97.118;2023-07-24T11:08:41;9.68;;;8.52;;
17773;SDS011;9011;33.236;-97.118;2023-07-24T11:11:19;11.32;;;7.80;;
17773;SDS011;9011;33.236;-97.118;2023-07-24T11:13:48;11.07;;;8.25;;
17773;SDS011;9011;33.236;-97.118;2023-07-24T11:16:16;9.32;;;7.72;;
17773;SDS011;9011;33.236;-97.118;2023-07-24T11:18:45;9.05;;;8.15;;
17773;SDS011;9011;33.236;-97.118;2023-07-24T11:21:14;11.73;;;7.97;;
17773;SDS011;9011;33.236;-97.118;2023-07-24T11:23:46;11.57;;;7.70;;
17773;SDS011;9011;33.236;-97.118;2023-07-24T11:26:15;11.38;;;8.00;;
17773;SDS011;9011;33.236;-97.118;2023-07-24T11:28:48;10.48;;;8.35;;
17773;SDS011;9011;33.236;-97.118;2023-07-24T11:31:17;10.90;;;7.57;;
17773;SDS011;9011;33.236;-97.118;2023-07-24T11:33:46;12.85;;;8.07;;
17773;SDS011;9011;33.236;-97.118;2023-07-24T11:36:15;9.00;;;7.95;;
17773;SDS011;9011;33.236;-97.118;2023-07-24T11:38:44;13.80;;;8.48;;
17773;SDS011;9011;33.236;-97.118;2023-07-24T11:41:13;12.98;;;8.57;;
17773;SDS011;9011;33.236;-97.118;2023-07-24T11:43:48;12.95;;;8.10;;
17773;SDS011;9011;33.236;-97.118;2023-07-24T11:46:24;11.95;;;8.55;;
17773;SDS011;9011;33.236;-97.118;2023-07-24T11:48:53;11.05;;;7.88;;
17773;SDS011;9011;33.236;-97.118;2023-07-24T11:51:22;10.52;;;8.25;;
17773;SDS011;9011;33.236;-97.118;2023-07-24T11:53:52;15.70;;;8.25;;
17773;SDS011;9011;33.236;-97.118;2023-07-24T11:56:31;13.35;;;8.65;;
17773;SDS011;9011;33.236;-97.118;2023-07-24T11:59:13;10.32;;;8.27;;
17773;SDS011;9011;33.236;-97.118;2023-07-24T12:01:41;15.85;;;9.00;;
17773;SDS011;9011;33.236;-97.118;2023-07-24T12:04:14;12.93;;;8.07;;
17773;SDS011;9011;33.236;-97.118;2023-07-24T12:06:43;12.93;;;8.57;;
17773;SDS011;9011;33.236;-97.118;2023-07-24T12:09:11;11.10;;;7.95;;
17773;SDS011;9011;33.236;-97.118;2023-07-24T12:11:40;14.27;;;8.68;;
17773;SDS011;9011;33.236;-97.118;2023-07-24T12:14:09;18.20;;;8.75;;
17773;SDS011;9011;33.236;-97.118;2023-07-24T12:16:40;36.17;;;10.77;;
17773;SDS011;9011;33.236;-97.118;2023-07-24T12:19:22;39.65;;;10.63;;
17773;SDS011;9011;33.236;-97.118;2023-07-24T12:21:57;31.58;;;10.07;;
17773;SDS011;9011;33.236;-97.118;2023-07-24T12:24:29;21.33;;;9.70;;
17773;SDS011;9011;33.236;-97.118;2023-07-24T12:26:57;32.08;;;9.85;;
17773;SDS011;9011;33.236;-97.118;2023-07-24T12:29:28;16.40;;;9.02;;
17773;SDS011;9011;33.236;-97.118;2023-07-24T12:31:57;18.38;;;9.75;;
17773;SDS011;9011;33.236;-97.118;2023-07-24T12:34:26;26.85;;;10.65;;
17773;SDS011;9011;33.236;-97.118;2023-07-24T12:36:54;21.27;;;9.52;;
17773;SDS011;9011;33.236;-97.118;2023-07-24T12:39:23;25.02;;;9.77;;
17773;SDS011;9011;33.236;-97.118;2023-07-24T12:41:52;21.10;;;9.05;;
17773;SDS011;9011;33.236;-97.118;2023-07-24T12:44:21;18.10;;;8.75;;
17773;SDS011;9011;33.236;-97.118;2023-07-24T12:46:53;13.02;;;8.07;;
17773;SDS011;9011;33.236;-97.118;2023-07-24T12:49:21;12.20;;;7.68;;
17773;SDS011;9011;33.236;-97.118;2023-07-24T12:51:50;18.38;;;8.88;;
17773;SDS011;9011;33.236;-97.118;2023-07-24T12:54:18;11.85;;;8.82;;
17773;SDS011;9011;33.236;-97.118;2023-07-24T12:56:50;14.90;;;8.80;;
17773;SDS011;9011;33.236;-97.118;2023-07-24T12:59:20;13.55;;;8.90;;
17773;SDS011;9011;33.236;-97.118;2023-07-24T13:01:48;11.45;;;8.50;;
17773;SDS011;9011;33.236;-97.118;2023-07-24T13:07:09;11.05;;;8.63;;
17773;SDS011;9011;33.236;-97.118;2023-07-24T13:09:38;10.63;;;8.48;;
17773;SDS011;9011;33.236;-97.118;2023-07-24T13:12:08;14.98;;;8.75;;
17773;SDS011;9011;33.236;-97.118;2023-07-24T13:14:36;9.32;;;8.05;;
17773;SDS011;9011;33.236;-97.118;2023-07-24T13:17:05;9.82;;;8.43;;
17773;SDS011;9011;33.236;-97.118;2023-07-24T13:19:35;12.90;;;8.60;;
17773;SDS011;9011;33.236;-97.118;2023-07-24T13:22:03;15.18;;;9.00;;
17773;SDS011;9011;33.236;-97.118;2023-07-24T13:24:33;12.43;;;8.90;;
17773;SDS011;9011;33.236;-97.118;2023-07-24T13:27:02;12.50;;;8.88;;
17773;SDS011;9011;33.236;-97.118;2023-07-24T13:29:31;11.55;;;7.75;;
17773;SDS011;9011;33.236;-97.118;2023-07-24T13:31:59;10.30;;;8.10;;
17773;SDS011;9011;33.236;-97.118;2023-07-24T13:34:28;12.45;;;8.57;;
17773;SDS011;9011;33.236;-97.118;2023-07-24T13:36:58;11.85;;;8.50;;
17773;SDS011;9011;33.236;-97.118;2023-07-24T13:39:27;9.07;;;7.65;;
17773;SDS011;9011;33.236;-97.118;2023-07-24T13:41:57;11.65;;;7.75;;
17773;SDS011;9011;33.236;-97.118;2023-07-24T13:44:25;8.82;;;7.90;;
17773;SDS011;9011;33.236;-97.118;2023-07-24T13:46:53;10.35;;;7.68;;
17773;SDS011;9011;33.236;-97.118;2023-07-24T13:49:22;9.63;;;7.28;;
17773;SDS011;9011;33.236;-97.118;2023-07-24T13:51:50;10.27;;;8.55;;
17773;SDS011;9011;33.236;-97.118;2023-07-24T13:54:20;9.15;;;7.57;;
17773;SDS011;9011;33.236;-97.118;2023-07-24T13:56:49;8.75;;;7.85;;
17773;SDS011;9011;33.236;-97.118;2023-07-24T13:59:17;10.93;;;7.93;;
17773;SDS011;9011;33.236;-97.118;2023-07-24T14:01:45;9.93;;;7.60;;
17773;SDS011;9011;33.236;-97.118;2023-07-24T14:04:14;10.52;;;6.82;;
17773;SDS011;9011;33.236;-97.118;2023-07-24T14:06:43;11.70;;;7.97;;
17773;SDS011;9011;33.236;-97.118;2023-07-24T14:09:11;8.73;;;7.82;;
17773;SDS011;9011;33.236;-97.118;2023-07-24T14:11:42;10.18;;;8.10;;
17773;SDS011;9011;33.236;-97.118;2023-07-24T14:14:10;9.55;;;8.10;;
17773;SDS011;9011;33.236;-97.118;2023-07-24T14:16:39;11.13;;;8.20;;
17773;SDS011;9011;33.236;-97.118;2023-07-24T14:19:07;10.82;;;8.73;;
17773;SDS011;9011;33.236;-97.118;2023-07-24T14:21:36;11.65;;;8.13;;
17773;SDS011;9011;33.236;-97.118;2023-07-24T14:24:04;8.60;;;7.70;;
17773;SDS011;9011;33.236;-97.118;2023-07-24T14:26:33;8.55;;;7.47;;
17773;SDS011;9011;33.236;-97.118;2023-07-24T14:29:04;11.00;;;7.88;;
17773;SDS011;9011;33.236;-97.118;2023-07-24T14:31:32;10.70;;;7.47;;
17773;SDS011;9011;33.236;-97.118;2023-07-24T14:34:01;9.45;;;7.97;;
17773;SDS011;9011;33.236;-97.118;2023-07-24T14:36:29;8.68;;;7.75;;
17773;SDS011;9011;33.236;-97.118;2023-07-24T14:39:00;11.27;;;7.90;;
17773;SDS011;9011;33.236;-97.118;2023-07-24T14:41:30;10.15;;;8.32;;
17773;SDS011;9011;33.236;-97.118;2023-07-24T14:43:58;10.05;;;8.23;;
17773;SDS011;9011;33.236;-97.118;2023-07-24T14:46:29;10.43;;;7.63;;
17773;SDS011;9011;33.236;-97.118;2023-07-24T14:48:58;10.48;;;8.23;;